createdAt,value
2019-01-18T00:01:54.733Z,1.92
2019-01-18T00:04:25.842Z,1.15
2019-01-18T00:06:55.863Z,3.12
2019-01-18T00:09:25.955Z,0.42
2019-01-18T00:11:55.974Z,1.30
2019-01-18T00:14:26.129Z,0.35
2019-01-18T00:16:56.164Z,3.05
2019-01-18T00:19:26.267Z,0.62
2019-01-18T00:21:56.270Z,1.85
2019-01-18T00:24:26.328Z,1.10
2019-01-18T00:26:56.469Z,0.98
2019-01-18T00:29:29.737Z,0.90
2019-01-18T00:31:58.085Z,1.42
2019-01-18T00:34:28.090Z,1.42
2019-01-18T00:36:58.112Z,0.47
2019-01-18T00:39:28.165Z,1.15
2019-01-18T00:41:58.142Z,2.37
2019-01-18T00:44:28.120Z,2.33
2019-01-18T00:46:58.120Z,1.92
2019-01-18T00:49:28.565Z,1.98
2019-01-18T00:51:59.606Z,3.35
2019-01-18T00:54:29.566Z,0.20
2019-01-18T00:56:59.490Z,2.40
2019-01-18T00:59:29.454Z,4.90
2019-01-18T01:02:00.325Z,0.30
2019-01-18T01:04:30.276Z,1.07
2019-01-18T01:07:00.236Z,2.87
2019-01-18T01:09:30.156Z,1.22
2019-01-18T01:12:05.871Z,2.83
2019-01-18T01:14:36.914Z,3.30
2019-01-18T01:17:07.231Z,3.27
2019-01-18T01:19:38.250Z,0.82
2019-01-18T01:22:08.278Z,0.62
2019-01-18T01:24:38.280Z,3.47
2019-01-18T01:27:08.276Z,0.80
2019-01-18T01:29:43.074Z,2.75
2019-01-18T01:32:09.982Z,4.03
2019-01-18T01:34:39.972Z,2.90
2019-01-18T01:37:09.945Z,0.80
2019-01-18T01:39:39.998Z,3.12
2019-01-18T01:42:10.007Z,0.78
2019-01-18T01:44:40.039Z,3.55
2019-01-18T01:47:10.023Z,3.02
2019-01-18T01:49:39.995Z,2.02
2019-01-18T01:52:09.945Z,2.02
2019-01-18T01:54:40.195Z,0.85
2019-01-18T01:57:10.171Z,3.30
2019-01-18T01:59:40.198Z,1.52
2019-01-18T02:02:10.249Z,2.08
2019-01-18T02:04:43.133Z,0.68
2019-01-18T02:07:13.125Z,2.75
2019-01-18T02:09:43.113Z,1.22
2019-01-18T02:12:13.083Z,0.93
2019-01-18T02:14:43.058Z,2.67
2019-01-18T02:17:13.008Z,2.25
2019-01-18T02:19:43.011Z,4.47
2019-01-18T02:22:12.979Z,2.65
2019-01-18T02:24:43.960Z,5.17
2019-01-18T02:27:13.691Z,5.17
2019-01-18T02:29:43.607Z,1.82
2019-01-18T02:32:13.375Z,1.50
2019-01-18T02:34:43.262Z,2.80
2019-01-18T02:37:13.167Z,1.67
2019-01-18T02:39:43.060Z,3.37
2019-01-18T02:42:12.826Z,4.08
2019-01-18T02:44:42.642Z,2.37
2019-01-18T02:47:12.564Z,4.62
2019-01-18T02:49:42.445Z,2.15
2019-01-18T02:52:12.359Z,2.90
2019-01-18T02:54:42.168Z,2.47
2019-01-18T02:57:12.007Z,4.75
2019-01-18T02:59:41.882Z,3.90
2019-01-18T03:02:11.625Z,1.87
2019-01-18T03:04:41.577Z,2.33
2019-01-18T03:07:11.497Z,3.33
2019-01-18T03:09:41.311Z,7.12
2019-01-18T03:12:11.185Z,1.65
2019-01-18T03:14:41.041Z,7.50
2019-01-18T03:17:10.944Z,2.85
2019-01-18T03:19:40.701Z,3.60
2019-01-18T03:22:10.469Z,3.02
2019-01-18T03:24:40.429Z,6.03
2019-01-18T03:27:10.330Z,3.05
2019-01-18T03:29:40.266Z,4.58
2019-01-18T03:32:10.041Z,3.58
2019-01-18T03:34:39.951Z,3.33
2019-01-18T03:37:09.833Z,3.25
2019-01-18T03:39:39.664Z,1.87
2019-01-18T03:42:10.459Z,5.25
2019-01-18T03:44:40.297Z,7.20
2019-01-18T03:47:10.189Z,4.17
2019-01-18T03:49:46.145Z,2.00
2019-01-18T03:52:15.981Z,1.40
2019-01-18T03:54:45.837Z,3.05
2019-01-18T03:57:15.654Z,5.12
2019-01-18T03:59:45.495Z,4.53
2019-01-18T04:02:15.335Z,1.80
2019-01-18T04:04:46.733Z,3.67
2019-01-18T04:07:16.551Z,4.05
2019-01-18T04:09:46.459Z,3.22
2019-01-18T04:12:16.316Z,2.92
2019-01-18T04:14:46.185Z,4.42
2019-01-18T04:17:16.019Z,3.45
2019-01-18T04:19:49.153Z,1.87
2019-01-18T04:22:22.005Z,6.08
2019-01-18T04:24:51.823Z,5.83
2019-01-18T04:27:21.613Z,2.65
2019-01-18T04:29:52.468Z,8.05
2019-01-18T04:32:22.670Z,3.20
2019-01-18T04:34:54.069Z,7.17
2019-01-18T04:37:24.355Z,9.75
2019-01-18T04:39:54.153Z,2.55
2019-01-18T04:42:24.083Z,9.10
2019-01-18T04:44:59.084Z,6.90
2019-01-18T04:47:29.780Z,6.87
2019-01-18T04:50:01.103Z,6.83
2019-01-18T04:52:30.898Z,5.83
2019-01-18T04:55:00.721Z,3.05
2019-01-18T04:57:30.670Z,4.08
2019-01-18T05:00:03.481Z,4.58
2019-01-18T05:02:33.714Z,3.98
2019-01-18T05:05:03.591Z,6.12
2019-01-18T05:07:33.431Z,2.65
2019-01-18T05:10:03.380Z,6.15
2019-01-18T05:12:33.219Z,4.12
2019-01-18T05:15:07.979Z,2.33
2019-01-18T05:17:41.214Z,5.90
2019-01-18T05:20:11.805Z,3.52
2019-01-18T05:22:43.905Z,4.95
2019-01-18T05:25:17.149Z,7.08
2019-01-18T05:27:49.983Z,3.52
2019-01-18T05:30:22.520Z,6.72
2019-01-18T05:32:52.809Z,9.08
2019-01-18T05:35:24.613Z,8.33
2019-01-18T05:37:54.514Z,4.87
2019-01-18T05:40:30.742Z,7.05
2019-01-18T05:43:03.281Z,5.72
2019-01-18T05:45:33.208Z,6.72
2019-01-18T05:48:03.048Z,3.50
2019-01-18T05:50:32.860Z,7.75
2019-01-18T05:53:05.960Z,3.80
2019-01-18T05:55:35.867Z,10.28
2019-01-18T05:58:05.783Z,10.65
2019-01-18T06:00:39.522Z,3.15
2019-01-18T06:03:09.484Z,7.40
2019-01-18T06:05:41.395Z,7.97
2019-01-18T06:08:11.138Z,5.78
2019-01-18T06:10:41.044Z,10.05
2019-01-18T06:13:10.902Z,8.33
2019-01-18T06:15:40.771Z,6.47
2019-01-18T06:18:10.905Z,8.35
2019-01-18T06:20:40.813Z,4.75
2019-01-18T06:23:10.737Z,6.35
2019-01-18T06:25:40.650Z,9.83
2019-01-18T06:28:10.505Z,5.22
2019-01-18T06:30:40.379Z,7.03
2019-01-18T06:33:10.310Z,7.30
2019-01-18T06:35:40.787Z,4.40
2019-01-18T06:38:10.623Z,6.20
2019-01-18T06:40:40.569Z,6.35
2019-01-18T06:43:10.491Z,5.67
2019-01-18T06:45:40.403Z,6.42
2019-01-18T06:48:11.959Z,6.30
2019-01-18T06:50:41.829Z,6.55
2019-01-18T06:53:11.739Z,6.62
2019-01-18T06:55:41.767Z,8.45
2019-01-18T06:58:11.653Z,8.85
2019-01-18T07:00:41.591Z,5.08
2019-01-18T07:03:11.469Z,8.98
2019-01-18T07:05:41.419Z,6.85
2019-01-18T07:08:11.387Z,17.85
2019-01-18T07:10:41.349Z,10.30
2019-01-18T07:13:11.351Z,5.08
2019-01-18T07:15:41.365Z,10.58
2019-01-18T07:18:11.301Z,8.68
2019-01-18T07:20:41.153Z,8.15
2019-01-18T07:23:11.071Z,8.10
2019-01-18T07:25:40.881Z,6.50
2019-01-18T07:28:10.794Z,7.08
2019-01-18T07:30:42.507Z,8.68
2019-01-18T07:33:16.890Z,6.05
2019-01-18T07:35:46.731Z,7.05
2019-01-18T07:38:16.757Z,4.47
2019-01-18T07:40:46.795Z,10.53
2019-01-18T07:43:17.626Z,11.33
2019-01-18T07:45:47.535Z,7.03
2019-01-18T07:48:17.491Z,6.40
2019-01-18T07:50:47.427Z,9.25
2019-01-18T07:53:17.366Z,8.60
2019-01-18T07:55:47.381Z,8.60
2019-01-18T07:58:17.361Z,7.62
2019-01-18T08:00:47.603Z,8.00
2019-01-18T08:03:17.669Z,12.55
2019-01-18T08:05:47.808Z,12.03
2019-01-18T08:08:17.804Z,8.50
2019-01-18T08:10:47.767Z,7.55
2019-01-18T08:13:17.732Z,8.23
2019-01-18T08:15:47.689Z,8.15
2019-01-18T08:18:17.765Z,8.70
2019-01-18T08:20:47.499Z,9.35
2019-01-18T08:23:17.437Z,3.65
2019-01-18T08:25:47.284Z,10.20
2019-01-18T08:28:17.118Z,3.35
2019-01-18T08:30:46.884Z,7.65
2019-01-18T08:33:16.818Z,10.35
2019-01-18T08:35:46.771Z,9.08
2019-01-18T08:38:16.602Z,8.23
2019-01-18T08:40:46.920Z,8.40
2019-01-18T08:43:18.066Z,5.17
2019-01-18T08:45:59.564Z,5.25
2019-01-18T08:48:29.410Z,5.70
2019-01-18T08:50:59.361Z,6.72
2019-01-18T08:53:29.302Z,6.78
2019-01-18T08:55:59.268Z,7.17
2019-01-18T08:58:29.170Z,5.40
2019-01-18T09:00:59.181Z,9.43
2019-01-18T09:03:29.080Z,3.98
2019-01-18T09:05:59.064Z,6.83
2019-01-18T09:08:28.998Z,9.23
2019-01-18T09:10:59.008Z,6.08
2019-01-18T09:13:29.108Z,2.70
2019-01-18T09:15:59.126Z,7.35
2019-01-18T09:18:29.122Z,4.15
2019-01-18T09:20:59.084Z,7.30
2019-01-18T09:23:29.260Z,3.55
2019-01-18T09:25:59.210Z,5.25
2019-01-18T09:28:29.926Z,10.70
2019-01-18T09:30:59.967Z,7.72
2019-01-18T09:33:29.920Z,4.17
2019-01-18T09:36:01.406Z,4.83
2019-01-18T09:38:31.814Z,6.70
2019-01-18T09:41:01.734Z,2.08
2019-01-18T09:43:31.711Z,8.90
2019-01-18T09:46:01.761Z,8.65
2019-01-18T09:48:31.620Z,4.85
2019-01-18T09:51:01.430Z,6.30
2019-01-18T09:53:31.424Z,8.65
2019-01-18T09:56:01.369Z,6.90
2019-01-18T09:58:31.207Z,6.17
2019-01-18T10:01:01.020Z,5.70
2019-01-18T10:03:30.834Z,2.83
2019-01-18T10:06:00.646Z,7.33
2019-01-18T10:08:30.557Z,4.22
2019-01-18T10:11:00.308Z,2.85
2019-01-18T10:13:30.119Z,4.42
2019-01-18T10:16:00.077Z,4.72
2019-01-18T10:18:30.029Z,1.10
2019-01-18T10:20:59.897Z,4.87
2019-01-18T10:23:29.804Z,4.15
2019-01-18T10:25:59.654Z,7.53
2019-01-18T10:28:29.733Z,2.37
2019-01-18T10:30:59.587Z,5.85
2019-01-18T10:33:29.532Z,5.47
2019-01-18T10:35:59.348Z,3.80
2019-01-18T10:38:29.157Z,8.40
2019-01-18T10:40:59.009Z,4.58
2019-01-18T10:43:28.887Z,3.35
2019-01-18T10:45:58.803Z,5.03
2019-01-18T10:48:28.611Z,6.05
2019-01-18T10:50:58.509Z,4.30
2019-01-18T10:53:28.377Z,5.28
2019-01-18T10:55:58.422Z,6.08
2019-01-18T10:58:28.211Z,1.87
2019-01-18T11:00:58.111Z,3.02
2019-01-18T11:03:27.940Z,3.95
2019-01-18T11:05:57.879Z,4.08
2019-01-18T11:08:27.842Z,5.58
2019-01-18T11:10:57.823Z,4.75
2019-01-18T11:13:27.734Z,4.70
2019-01-18T11:15:57.475Z,4.00
2019-01-18T11:18:27.591Z,3.67
2019-01-18T11:21:18.297Z,6.75
2019-01-18T11:23:48.371Z,2.65
2019-01-18T11:26:18.287Z,5.37
2019-01-18T11:28:48.240Z,2.52
2019-01-18T11:31:18.086Z,9.98
2019-01-18T11:33:48.469Z,4.97
2019-01-18T11:36:18.299Z,2.80
2019-01-18T11:38:48.323Z,3.83
2019-01-18T11:41:18.535Z,8.18
2019-01-18T11:43:48.293Z,20.48
2019-01-18T11:46:18.121Z,13.25
2019-01-18T11:48:50.352Z,3.67
2019-01-18T11:51:19.540Z,6.17
2019-01-18T11:53:49.348Z,9.93
2019-01-18T11:56:19.167Z,3.92
2019-01-18T11:58:48.974Z,4.70
2019-01-18T12:01:18.682Z,6.58
2019-01-18T12:03:49.658Z,4.80
2019-01-18T12:06:19.285Z,6.53
2019-01-18T12:08:49.082Z,4.62
2019-01-18T12:11:18.966Z,7.35
2019-01-18T12:13:49.559Z,5.92
2019-01-18T12:16:19.597Z,3.50
2019-01-18T12:18:49.510Z,5.35
2019-01-18T12:21:19.500Z,2.17
2019-01-18T12:23:49.378Z,4.00
2019-01-18T12:26:19.441Z,6.42
2019-01-18T12:28:51.174Z,5.05
2019-01-18T12:31:20.826Z,6.35
2019-01-18T12:33:50.592Z,3.90
2019-01-18T12:36:20.508Z,3.92
2019-01-18T12:38:50.327Z,5.95
2019-01-18T12:41:20.154Z,6.60
2019-01-18T12:43:49.979Z,10.63
2019-01-18T12:46:19.800Z,5.10
2019-01-18T12:48:49.705Z,2.98
2019-01-18T12:51:19.468Z,6.60
2019-01-18T12:53:49.426Z,10.80
2019-01-18T12:56:19.270Z,9.68
2019-01-18T12:58:49.159Z,8.53
2019-01-18T13:01:18.972Z,5.30
2019-01-18T13:03:48.798Z,8.40
2019-01-18T13:06:18.582Z,6.80
2019-01-18T13:08:48.411Z,3.47
2019-01-18T13:11:18.303Z,3.83
2019-01-18T13:13:48.218Z,5.80
2019-01-18T13:16:25.260Z,4.45
2019-01-18T13:18:57.952Z,6.67
2019-01-18T13:21:27.800Z,5.95
2019-01-18T13:23:57.720Z,6.95
2019-01-18T13:26:28.728Z,8.40
2019-01-18T13:28:58.621Z,6.62
2019-01-18T13:31:28.432Z,4.22
2019-01-18T13:33:58.308Z,6.97
2019-01-18T13:36:28.129Z,7.17
2019-01-18T13:38:58.760Z,3.65
2019-01-18T13:41:28.609Z,3.98
2019-01-18T13:43:58.525Z,5.20
2019-01-18T13:46:28.471Z,4.78
2019-01-18T13:48:58.427Z,6.70
2019-01-18T13:51:28.375Z,6.62
2019-01-18T13:53:58.277Z,5.55
2019-01-18T13:56:28.397Z,4.80
2019-01-18T13:58:58.326Z,7.55
2019-01-18T14:01:28.090Z,5.37
2019-01-18T14:03:57.919Z,7.45
2019-01-18T14:06:29.461Z,12.63
2019-01-18T14:08:59.343Z,5.40
2019-01-18T14:11:29.096Z,1.77
2019-01-18T14:13:58.943Z,5.92
2019-01-18T14:16:28.855Z,5.80
2019-01-18T14:19:01.056Z,5.47
2019-01-18T14:21:32.127Z,3.92
2019-01-18T14:24:02.084Z,5.22
2019-01-18T14:26:32.004Z,6.95
2019-01-18T14:29:01.835Z,6.97
2019-01-18T14:31:31.585Z,9.43
2019-01-18T14:34:01.542Z,2.58
2019-01-18T14:36:31.453Z,8.28
2019-01-18T14:39:01.347Z,4.00
2019-01-18T14:41:32.779Z,6.15
2019-01-18T14:44:03.150Z,3.60
2019-01-18T14:46:33.049Z,6.08
2019-01-18T14:49:02.959Z,4.85
2019-01-18T14:51:32.883Z,2.17
2019-01-18T14:54:02.689Z,5.72
2019-01-18T14:56:32.569Z,6.53
2019-01-18T14:59:03.383Z,3.50
2019-01-18T15:01:33.288Z,7.17
2019-01-18T15:04:03.243Z,10.38
2019-01-18T15:06:33.132Z,5.20
2019-01-18T15:09:04.723Z,6.30
2019-01-18T15:11:36.232Z,6.33
2019-01-18T15:14:06.219Z,2.08
2019-01-18T15:16:36.077Z,9.80
2019-01-18T15:19:05.915Z,3.52
2019-01-18T15:21:35.826Z,7.78
2019-01-18T15:24:05.774Z,2.83
2019-01-18T15:26:35.614Z,3.72
2019-01-18T15:29:05.512Z,7.00
2019-01-18T15:31:35.551Z,8.78
2019-01-18T15:34:05.442Z,3.02
2019-01-18T15:36:35.402Z,1.75
2019-01-18T15:39:09.430Z,7.62
2019-01-18T15:41:39.552Z,3.67
2019-01-18T15:44:09.960Z,3.45
2019-01-18T15:46:39.778Z,4.25
2019-01-18T15:49:09.694Z,4.35
2019-01-18T15:51:39.656Z,6.72
2019-01-18T15:54:09.560Z,10.50
2019-01-18T15:56:39.521Z,7.37
2019-01-18T15:59:09.391Z,10.55
2019-01-18T16:01:39.312Z,6.47
2019-01-18T16:04:09.276Z,8.63
2019-01-18T16:06:41.287Z,4.30
2019-01-18T16:09:11.206Z,4.28
2019-01-18T16:11:41.239Z,2.92
2019-01-18T16:14:11.312Z,11.73
2019-01-18T16:16:45.890Z,8.08
2019-01-18T16:19:15.746Z,4.83
2019-01-18T16:21:45.493Z,4.85
2019-01-18T16:24:15.745Z,11.18
2019-01-18T16:26:45.643Z,4.92
2019-01-18T16:29:15.674Z,7.45
2019-01-18T16:31:45.533Z,9.70
2019-01-18T16:34:15.452Z,9.70
2019-01-18T16:36:45.496Z,3.92
2019-01-18T16:39:15.372Z,4.80
2019-01-18T16:41:45.257Z,11.30
2019-01-18T16:44:15.121Z,10.35
2019-01-18T16:46:45.050Z,8.73
2019-01-18T16:49:14.922Z,6.60
2019-01-18T16:51:46.476Z,8.93
2019-01-18T16:54:16.276Z,7.20
2019-01-18T16:56:46.209Z,8.55
2019-01-18T16:59:16.090Z,7.78
2019-01-18T17:01:46.045Z,6.90
2019-01-18T17:04:16.145Z,11.30
2019-01-18T17:06:46.114Z,6.60
2019-01-18T17:09:16.044Z,9.53
2019-01-18T17:11:46.033Z,15.98
2019-01-18T17:14:15.903Z,8.85
2019-01-18T17:16:45.886Z,9.15
2019-01-18T17:19:15.797Z,8.23
2019-01-18T17:21:45.779Z,9.33
2019-01-18T17:24:15.738Z,11.50
2019-01-18T17:26:45.708Z,12.85
2019-01-18T17:29:15.595Z,9.60
2019-01-18T17:31:45.557Z,10.98
2019-01-18T17:34:15.412Z,8.63
2019-01-18T17:37:07.700Z,8.90
2019-01-18T17:40:08.718Z,8.93
2019-01-18T17:43:24.489Z,11.50
2019-01-18T17:46:35.663Z,13.10
2019-01-18T17:49:34.422Z,10.70
2019-01-18T17:52:38.797Z,13.58
2019-01-18T17:55:47.565Z,11.22
2019-01-18T17:59:13.203Z,10.75
2019-01-18T18:01:57.371Z,9.00
2019-01-18T18:05:11.607Z,7.62
2019-01-18T18:08:07.451Z,8.73
2019-01-18T18:11:05.737Z,9.73
2019-01-18T18:14:18.572Z,11.80
2019-01-18T18:17:44.902Z,11.10
2019-01-18T18:20:43.563Z,13.05
2019-01-18T18:23:28.984Z,12.10
2019-01-18T18:26:48.557Z,12.47
2019-01-18T18:29:52.518Z,14.58
2019-01-18T18:33:20.117Z,11.03
2019-01-18T18:36:30.316Z,14.35
2019-01-18T18:39:15.676Z,9.35
2019-01-18T18:42:32.919Z,12.78
2019-01-18T18:45:55.200Z,16.17
2019-01-18T18:49:03.451Z,13.62
2019-01-18T18:52:09.267Z,16.02
2019-01-18T18:55:26.459Z,17.42
2019-01-18T18:58:36.480Z,10.45
2019-01-18T19:01:45.585Z,11.85
2019-01-18T19:04:53.096Z,16.20
2019-01-18T19:07:49.386Z,12.98
2019-01-18T19:10:36.840Z,12.75
2019-01-18T19:13:41.630Z,12.68
2019-01-18T19:16:29.068Z,14.80
2019-01-18T19:19:32.150Z,11.95
2019-01-18T19:22:39.594Z,14.75
2019-01-18T19:25:55.718Z,14.05
2019-01-18T19:28:52.880Z,11.68
2019-01-18T19:32:00.136Z,17.95
2019-01-18T19:34:47.566Z,15.08
2019-01-18T19:37:57.030Z,16.05
2019-01-18T19:41:07.350Z,18.30
2019-01-18T19:44:17.572Z,14.53
2019-01-18T19:47:16.259Z,14.25
2019-01-18T19:50:23.324Z,15.03
2019-01-18T19:53:10.122Z,17.45
2019-01-18T19:56:42.352Z,14.90
2019-01-18T20:00:04.601Z,14.28
2019-01-18T20:03:30.137Z,19.35
2019-01-18T20:06:14.951Z,15.95
2019-01-18T20:09:16.290Z,13.58
2019-01-18T20:12:54.928Z,16.10
2019-01-18T20:15:52.959Z,19.25
2019-01-18T20:19:08.996Z,20.45
2019-01-18T20:22:16.558Z,24.35
2019-01-18T20:25:30.547Z,21.68
2019-01-18T20:28:12.039Z,22.60
2019-01-18T20:31:23.377Z,15.72
2019-01-18T20:34:55.769Z,20.75
2019-01-18T20:38:02.844Z,16.85
2019-01-18T20:41:17.275Z,20.35
2019-01-18T20:44:46.800Z,16.48
2019-01-18T20:47:45.448Z,20.02
2019-01-18T20:50:52.289Z,20.72
2019-01-18T20:53:50.641Z,25.80
2019-01-18T20:57:04.713Z,26.48
2019-01-18T21:00:02.795Z,24.40
2019-01-18T21:02:46.670Z,22.73
2019-01-18T21:05:45.870Z,26.75
2019-01-18T21:08:52.745Z,25.97
2019-01-18T21:11:49.263Z,23.55
2019-01-18T21:14:47.032Z,21.48
2019-01-18T21:17:47.824Z,23.90
2019-01-18T21:20:37.328Z,23.57
2019-01-18T21:24:03.905Z,23.50
2019-01-18T21:27:16.611Z,21.23
2019-01-18T21:30:15.703Z,25.00
2019-01-18T21:33:09.461Z,20.40
2019-01-18T21:36:31.560Z,23.50
2019-01-18T21:39:13.861Z,21.90
2019-01-18T21:42:17.517Z,25.02
2019-01-18T21:45:47.149Z,21.62
2019-01-18T21:49:00.217Z,23.38
2019-01-18T21:52:13.425Z,25.43
2019-01-18T21:55:01.012Z,22.25
2019-01-18T21:58:15.185Z,25.72
2019-01-18T22:01:28.414Z,23.52
2019-01-18T22:04:06.229Z,21.70
2019-01-18T22:07:10.025Z,21.68
2019-01-18T22:10:30.037Z,25.32
2019-01-18T22:13:14.879Z,25.20
2019-01-18T22:16:10.323Z,32.15
2019-01-18T22:19:20.817Z,24.45
2019-01-18T22:22:32.282Z,24.70
2019-01-18T22:25:34.289Z,23.67
2019-01-18T22:28:19.489Z,24.20
2019-01-18T22:31:22.739Z,26.10
2019-01-18T22:34:18.684Z,22.60
2019-01-18T22:37:29.873Z,29.60
2019-01-18T22:40:44.355Z,29.63
2019-01-18T22:43:59.815Z,32.48
2019-01-18T22:47:16.097Z,28.10
2019-01-18T22:50:07.346Z,30.57
2019-01-18T22:53:30.565Z,29.77
2019-01-18T22:56:29.673Z,28.40
2019-01-18T22:59:31.615Z,26.50
2019-01-18T23:02:51.390Z,26.75
2019-01-18T23:06:08.916Z,30.62
2019-01-18T23:09:10.467Z,28.60
2019-01-18T23:12:07.185Z,34.25
2019-01-18T23:15:33.573Z,28.52
2019-01-18T23:18:18.370Z,26.33
2019-01-18T23:21:40.819Z,31.12
2019-01-18T23:24:16.080Z,30.23
2019-01-18T23:27:29.498Z,35.58
2019-01-18T23:30:26.073Z,31.00
2019-01-18T23:33:49.519Z,28.77
2019-01-18T23:36:31.409Z,28.62
2019-01-18T23:39:36.450Z,29.37
2019-01-18T23:42:32.098Z,25.68
2019-01-18T23:45:39.013Z,27.32
2019-01-18T23:49:00.250Z,29.82
2019-01-18T23:52:08.189Z,30.52
2019-01-18T23:55:19.017Z,37.35
2019-01-18T23:58:22.410Z,27.45
